Time;durP1;ratioP1;P1;durP2;ratioP2;P2;SDS_P1;SDS_P2;PMS_P1;PMS_P2;Temp;Humidity;BMP_temperature;BMP_pressure;BME280_temperature;BME280_humidity;BME280_pressure;Samples;Min_cycle;Max_cycle;Signal;HPM_P1;HPM_P2
2022/01/08 00:01:40;;;;;;;3.80;2.60;;;-4.60;92.40;;;;;;4999939;28;20026;-85
2022/01/08 00:04:07;;;;;;;2.97;2.45;;;-4.60;92.50;;;;;;5006992;28;20018;-85
2022/01/08 00:06:33;;;;;;;3.10;1.83;;;-4.60;92.40;;;;;;5000285;28;20414;-85
2022/01/08 00:08:58;;;;;;;2.97;2.33;;;-4.60;92.40;;;;;;4980466;28;20030;-85
2022/01/08 00:11:27;;;;;;;3.20;2.40;;;-4.70;92.40;;;;;;5018626;28;20037;-86
2022/01/08 00:13:53;;;;;;;3.42;2.33;;;-4.70;92.40;;;;;;4997248;28;20045;-87
2022/01/08 00:16:19;;;;;;;2.75;1.95;;;-4.70;92.40;;;;;;5016526;28;20085;-87
2022/01/08 00:18:45;;;;;;;2.03;1.60;;;-4.70;92.20;;;;;;5016046;28;20022;-86
2022/01/08 00:21:11;;;;;;;2.80;2.05;;;-4.70;92.10;;;;;;4998404;28;20026;-86
2022/01/08 00:23:37;;;;;;;3.08;2.28;;;-4.80;92.10;;;;;;5007852;28;20106;-83
2022/01/08 00:26:04;;;;;;;4.30;2.28;;;-4.80;92.00;;;;;;5037135;28;20040;-86
2022/01/08 00:28:30;;;;;;;3.08;2.00;;;-4.80;92.00;;;;;;4993614;28;20030;-87
2022/01/08 00:30:56;;;;;;;2.08;1.90;;;-4.80;91.90;;;;;;5017367;28;20081;-87
2022/01/08 00:33:22;;;;;;;4.50;2.40;;;-4.80;91.80;;;;;;5019060;28;20056;-87
2022/01/08 00:35:48;;;;;;;4.57;2.90;;;-4.80;91.80;;;;;;5015785;28;20499;-87
2022/01/08 00:38:15;;;;;;;5.07;2.58;;;-4.80;91.80;;;;;;5017766;28;20032;-86
2022/01/08 00:40:41;;;;;;;4.63;2.53;;;-4.80;91.70;;;;;;5019886;28;20033;-87
2022/01/08 00:43:07;;;;;;;2.97;1.98;;;-4.80;91.50;;;;;;5015430;28;20522;-85
2022/01/08 00:45:33;;;;;;;3.22;2.45;;;-4.80;91.40;;;;;;5015431;28;20026;-85
2022/01/08 00:48:02;;;;;;;4.07;2.50;;;-4.80;91.20;;;;;;5009455;28;20080;-86
2022/01/08 00:50:28;;;;;;;3.45;2.58;;;-4.80;90.90;;;;;;4984875;28;20042;-86
2022/01/08 00:52:54;;;;;;;4.03;2.60;;;-4.90;90.80;;;;;;4987235;28;20019;-84
2022/01/08 00:55:19;;;;;;;3.13;1.98;;;-4.90;90.30;;;;;;4983983;28;20116;-85
2022/01/08 00:57:45;;;;;;;3.17;2.60;;;-4.90;89.70;;;;;;4982819;28;20027;-86
2022/01/08 01:00:13;;;;;;;2.72;2.00;;;-4.90;89.20;;;;;;4984115;28;20039;-86
2022/01/08 01:02:40;;;;;;;4.75;2.47;;;-5.00;88.20;;;;;;4960942;28;20023;-85
2022/01/08 01:05:06;;;;;;;4.00;2.70;;;-4.90;87.80;;;;;;4960699;28;20129;-85
2022/01/08 01:07:32;;;;;;;4.18;2.78;;;-5.00;87.80;;;;;;4975009;28;20034;-86
2022/01/08 01:09:59;;;;;;;3.70;2.40;;;-4.90;88.10;;;;;;4976997;28;20038;-88
2022/01/08 01:12:25;;;;;;;2.75;1.90;;;-4.90;88.00;;;;;;4977770;28;20157;-87
2022/01/08 01:14:51;;;;;;;3.85;2.25;;;-4.90;87.30;;;;;;4981150;28;20098;-87
2022/01/08 01:17:17;;;;;;;2.97;2.05;;;-4.80;87.20;;;;;;4996375;28;20035;-86
2022/01/08 01:19:43;;;;;;;2.03;1.83;;;-4.80;86.00;;;;;;4982663;28;20030;-85
2022/01/08 01:22:13;;;;;;;2.63;1.98;;;-4.80;85.50;;;;;;4990651;28;20038;-86
2022/01/08 01:24:40;;;;;;;2.40;1.67;;;-4.80;85.30;;;;;;4998283;28;20042;-86
2022/01/08 01:27:50;;;;;;;2.30;1.75;;;-4.80;85.00;;;;;;4997007;28;20026;-86
2022/01/08 01:30:11;;;;;;;2.63;1.67;;;-4.80;84.60;;;;;;4983669;28;20530;-87
2022/01/08 01:49:04;;;;;;;1.23;1.13;;;-4.70;84.00;;;;;;4996855;28;20062;-89
2022/01/08 01:51:30;;;;;;;3.35;1.73;;;-4.80;84.40;;;;;;4999808;28;20026;-85
2022/01/08 01:53:56;;;;;;;1.85;1.58;;;-4.80;84.00;;;;;;5001266;28;20488;-87
2022/01/08 01:56:23;;;;;;;3.85;2.67;;;-4.80;83.90;;;;;;4994890;28;20538;-87
2022/01/08 01:58:49;;;;;;;2.25;1.83;;;-4.90;83.60;;;;;;4996817;28;20018;-86
2022/01/08 02:01:16;;;;;;;2.55;1.85;;;-4.90;83.40;;;;;;4994725;28;20031;-82
2022/01/08 02:03:42;;;;;;;4.00;1.75;;;-4.90;83.70;;;;;;4995798;28;20026;-84
2022/01/08 02:06:08;;;;;;;3.95;3.28;;;-4.90;83.70;;;;;;5002356;28;20053;-85
2022/01/08 02:08:37;;;;;;;2.92;2.30;;;-4.90;83.20;;;;;;5009578;28;20026;-84
2022/01/08 02:11:03;;;;;;;3.42;1.98;;;-4.90;82.60;;;;;;4997801;28;20034;-86
2022/01/08 02:13:29;;;;;;;2.83;1.80;;;-4.90;83.10;;;;;;4997615;28;20014;-85
2022/01/08 02:15:57;;;;;;;3.20;2.15;;;-4.90;82.80;;;;;;4997349;28;20061;-86
2022/01/08 02:18:27;;;;;;;3.13;1.98;;;-5.00;82.40;;;;;;5004575;28;20015;-85
2022/01/08 02:20:54;;;;;;;3.15;2.55;;;-5.00;82.70;;;;;;5010051;28;20104;-86
2022/01/08 02:23:20;;;;;;;4.30;2.83;;;-5.00;83.10;;;;;;4997580;28;20029;-84
2022/01/08 02:25:46;;;;;;;2.67;1.50;;;-4.90;83.20;;;;;;5002476;28;20038;-85
2022/01/08 02:28:12;;;;;;;3.67;2.15;;;-4.90;83.30;;;;;;5007229;28;20025;-82
2022/01/08 02:30:37;;;;;;;2.63;2.25;;;-4.90;83.10;;;;;;5001389;28;20031;-84
2022/01/08 02:33:03;;;;;;;3.03;1.98;;;-4.90;82.90;;;;;;4997391;28;20022;-85
2022/01/08 02:35:29;;;;;;;2.60;1.98;;;-4.90;82.90;;;;;;4996029;28;20388;-86
2022/01/08 02:37:55;;;;;;;3.33;2.15;;;-4.90;83.20;;;;;;4995544;28;20034;-85
2022/01/08 02:40:22;;;;;;;3.58;2.20;;;-4.90;83.70;;;;;;4999836;28;20026;-83
2022/01/08 02:42:59;;;;;;;3.70;2.28;;;-4.80;84.00;;;;;;4999235;28;20534;-85
2022/01/08 02:45:26;;;;;;;4.50;2.25;;;-4.80;84.20;;;;;;5000070;28;20034;-86
2022/01/08 02:47:56;;;;;;;3.42;2.28;;;-4.80;84.40;;;;;;5005044;28;20065;-85
2022/01/08 02:50:23;;;;;;;3.17;2.40;;;-4.70;84.40;;;;;;5005451;28;20034;-85
2022/01/08 02:52:50;;;;;;;5.40;2.00;;;-4.80;84.40;;;;;;5005329;28;20025;-86
2022/01/08 02:55:18;;;;;;;2.90;2.13;;;-4.70;84.80;;;;;;5011570;28;20046;-85
2022/01/08 02:57:44;;;;;;;1.90;1.65;;;-4.70;84.70;;;;;;4995031;28;20080;-85
2022/01/08 03:00:15;;;;;;;8.13;2.00;;;-4.70;84.70;;;;;;5003136;28;20030;-86
2022/01/08 03:02:47;;;;;;;4.93;3.20;;;-4.70;84.40;;;;;;5010924;28;20014;-86
2022/01/08 03:05:13;;;;;;;2.70;1.88;;;-4.70;85.20;;;;;;5019045;28;20034;-84
2022/01/08 03:07:41;;;;;;;3.17;1.95;;;-4.70;85.00;;;;;;5011984;28;20093;-87
2022/01/08 03:10:10;;;;;;;2.75;1.92;;;-4.70;85.00;;;;;;5001320;28;20019;-87
2022/01/08 03:12:40;;;;;;;2.30;1.95;;;-4.70;85.00;;;;;;4998796;28;20030;-86
2022/01/08 03:15:10;;;;;;;5.00;2.50;;;-4.60;85.20;;;;;;4997449;28;20049;-86
2022/01/08 03:17:39;;;;;;;3.03;1.88;;;-4.60;85.50;;;;;;4994570;28;20027;-86
2022/01/08 03:20:09;;;;;;;2.78;2.00;;;-4.60;85.50;;;;;;4995276;28;20023;-87
2022/01/08 03:22:36;;;;;;;2.63;1.73;;;-4.60;85.50;;;;;;5008227;28;20022;-82
2022/01/08 03:25:04;;;;;;;2.20;1.88;;;-4.60;85.80;;;;;;5016885;28;20039;-84
2022/01/08 03:27:30;;;;;;;2.38;1.85;;;-4.60;86.20;;;;;;5006717;28;20033;-84
2022/01/08 03:29:56;;;;;;;2.45;1.83;;;-4.60;86.40;;;;;;5031738;28;20030;-82
2022/01/08 03:32:22;;;;;;;3.45;1.80;;;-4.60;86.60;;;;;;5012335;28;20098;-83
2022/01/08 03:34:48;;;;;;;5.15;2.60;;;-4.60;86.80;;;;;;5013557;28;20065;-83
2022/01/08 03:37:14;;;;;;;2.80;2.28;;;-4.60;86.90;;;;;;4997097;28;20842;-85
2022/01/08 03:39:40;;;;;;;3.63;1.92;;;-4.60;87.10;;;;;;4992553;28;20480;-84
2022/01/08 03:42:06;;;;;;;3.13;2.00;;;-4.60;87.40;;;;;;4994053;28;20042;-85
2022/01/08 03:44:32;;;;;;;2.20;1.65;;;-4.60;87.60;;;;;;4992800;28;20134;-84
2022/01/08 03:47:21;;;;;;;3.57;2.30;;;-4.60;87.90;;;;;;4995178;28;20105;-84
2022/01/08 03:49:45;;;;;;;3.53;2.50;;;-4.60;88.10;;;;;;4995449;28;20030;-84
2022/01/08 03:52:12;;;;;;;3.70;2.57;;;-4.50;88.20;;;;;;4993512;28;20026;-84
2022/01/08 03:54:39;;;;;;;7.30;3.40;;;-4.50;88.30;;;;;;4993867;28;20042;-86
2022/01/08 03:57:05;;;;;;;3.20;2.03;;;-4.50;88.40;;;;;;4994171;28;20157;-84
2022/01/08 03:59:31;;;;;;;4.30;2.45;;;-4.50;88.50;;;;;;4994460;28;20030;-85
2022/01/08 04:01:57;;;;;;;2.45;2.25;;;-4.40;88.70;;;;;;4995593;28;20042;-84
2022/01/08 04:04:24;;;;;;;3.42;1.70;;;-4.40;88.60;;;;;;4995011;28;20094;-86
2022/01/08 04:06:50;;;;;;;2.75;1.20;;;-4.50;88.60;;;;;;5011220;28;20419;-85
2022/01/08 04:09:16;;;;;;;3.38;1.50;;;-4.50;88.70;;;;;;5003712;28;20027;-85
2022/01/08 04:11:42;;;;;;;2.13;1.80;;;-4.50;89.20;;;;;;5016142;28;20015;-80
2022/01/08 04:14:08;;;;;;;3.78;1.92;;;-4.50;89.50;;;;;;5000481;28;20268;-84
2022/01/08 04:16:37;;;;;;;3.15;1.63;;;-4.50;89.70;;;;;;4996047;28;20037;-86
2022/01/08 04:19:03;;;;;;;1.60;1.40;;;-4.50;89.70;;;;;;4995004;28;20365;-86
2022/01/08 04:24:06;;;;;;;1.25;1.15;;;-4.50;89.10;;;;;;4994451;28;20033;-85
2022/01/08 04:26:33;;;;;;;1.92;1.40;;;-4.60;88.50;;;;;;4993914;28;20029;-84
2022/01/08 04:28:59;;;;;;;3.25;1.38;;;-4.60;88.30;;;;;;4996898;28;20101;-84
2022/01/08 04:31:26;;;;;;;1.77;1.27;;;-4.60;88.00;;;;;;5007264;28;20081;-85
2022/01/08 04:33:53;;;;;;;3.15;1.55;;;-4.50;87.60;;;;;;5002562;28;20062;-84
2022/01/08 04:36:20;;;;;;;2.72;1.60;;;-4.60;87.40;;;;;;4998965;28;20050;-85
2022/01/08 04:38:45;;;;;;;1.58;1.17;;;-4.50;87.50;;;;;;4997488;28;20054;-86
2022/01/08 04:41:11;;;;;;;2.97;1.98;;;-4.40;87.60;;;;;;4998158;28;20415;-83
2022/01/08 04:43:42;;;;;;;1.70;1.52;;;-4.40;87.30;;;;;;4997677;28;20064;-83
2022/01/08 04:46:08;;;;;;;3.05;2.30;;;-4.40;86.70;;;;;;4997786;28;20034;-84
2022/01/08 04:48:33;;;;;;;2.92;1.63;;;-4.40;86.50;;;;;;5001967;28;20049;-84
2022/01/08 04:50:59;;;;;;;1.58;1.25;;;-4.50;86.60;;;;;;5004397;28;20026;-87
2022/01/08 04:53:25;;;;;;;3.08;1.38;;;-4.40;86.70;;;;;;4997472;28;20551;-87
2022/01/08 04:55:51;;;;;;;2.97;1.60;;;-4.40;86.70;;;;;;4998082;28;20117;-84
2022/01/08 04:58:17;;;;;;;3.13;2.38;;;-4.40;86.70;;;;;;5000004;28;20117;-84
2022/01/08 05:00:43;;;;;;;1.20;0.95;;;-4.40;87.00;;;;;;5001004;28;20042;-87
2022/01/08 05:03:08;;;;;;;4.40;1.52;;;-4.40;87.20;;;;;;5000116;28;20019;-86
2022/01/08 05:05:34;;;;;;;2.45;1.58;;;-4.40;87.30;;;;;;4998974;28;20059;-87
2022/01/08 05:08:00;;;;;;;2.53;1.73;;;-4.40;87.60;;;;;;5008528;28;20524;-85
2022/01/08 05:10:26;;;;;;;3.75;1.70;;;-4.40;87.80;;;;;;5020262;28;20150;-82
2022/01/08 05:12:51;;;;;;;1.95;1.40;;;-4.40;88.10;;;;;;5021097;28;20018;-80
2022/01/08 05:15:17;;;;;;;4.13;1.55;;;-4.30;88.20;;;;;;5020703;28;20050;-85
2022/01/08 05:17:46;;;;;;;3.30;1.58;;;-4.30;88.20;;;;;;5016783;28;20061;-87
2022/01/08 05:20:13;;;;;;;3.22;1.60;;;-4.30;88.30;;;;;;5007878;28;20491;-85
2022/01/08 05:23:01;;;;;;;2.33;1.60;;;-4.30;88.50;;;;;;5003943;28;20023;-87
2022/01/08 05:25:28;;;;;;;;;;;-4.30;88.80;;;;;;5001035;28;20117;-88
2022/01/08 05:27:55;;;;;;;3.90;1.90;;;-4.20;88.90;;;;;;5012482;28;19956;-86
2022/01/08 05:30:23;;;;;;;2.33;1.27;;;-4.20;89.40;;;;;;5013990;28;20037;-83
2022/01/08 05:32:49;;;;;;;3.65;1.92;;;-4.20;89.70;;;;;;4996197;28;20125;-86
2022/01/08 05:35:16;;;;;;;3.20;1.25;;;-4.20;89.90;;;;;;4996231;28;20411;-84
2022/01/08 05:37:42;;;;;;;3.70;1.40;;;-4.20;90.00;;;;;;4998521;28;20018;-85
2022/01/08 05:40:10;;;;;;;2.25;1.60;;;-4.20;90.10;;;;;;4999854;28;20033;-87
2022/01/08 05:42:36;;;;;;;2.60;1.83;;;-4.20;90.20;;;;;;4996606;28;20050;-87
2022/01/08 05:45:02;;;;;;;2.47;1.67;;;-4.20;90.30;;;;;;4989521;28;20026;-84
2022/01/08 05:47:32;;;;;;;3.63;1.80;;;-4.10;90.30;;;;;;4994174;28;20026;-86
2022/01/08 05:49:58;;;;;;;1.70;1.38;;;-4.10;90.30;;;;;;4980496;28;20268;-88
2022/01/08 05:52:24;;;;;;;2.42;1.50;;;-4.10;90.30;;;;;;4980191;28;20054;-87
2022/01/08 05:54:50;;;;;;;2.65;1.45;;;-4.00;90.40;;;;;;4977815;28;20114;-87
2022/01/08 05:57:16;;;;;;;2.45;1.67;;;-4.00;90.30;;;;;;4994604;28;20054;-88
2022/01/08 05:59:43;;;;;;;2.13;1.30;;;-4.00;90.30;;;;;;4981292;28;20087;-88
2022/01/08 06:02:09;;;;;;;4.13;1.63;;;-3.90;90.10;;;;;;4979567;28;20460;-83
2022/01/08 06:04:36;;;;;;;3.60;1.30;;;-3.90;90.00;;;;;;4976549;28;20051;-84
2022/01/08 06:07:02;;;;;;;1.93;1.23;;;-3.90;89.60;;;;;;4991779;28;20392;-84
2022/01/08 06:09:28;;;;;;;3.03;1.58;;;-3.90;89.50;;;;;;4981074;28;20081;-85
2022/01/08 06:11:54;;;;;;;1.85;1.27;;;-3.90;89.50;;;;;;5004772;28;20439;-85
2022/01/08 06:14:20;;;;;;;1.95;1.27;;;-3.90;89.60;;;;;;4997912;28;20026;-84
2022/01/08 06:16:45;;;;;;;1.63;1.33;;;-3.90;89.60;;;;;;5003682;28;20030;-85
2022/01/08 06:19:13;;;;;;;1.90;1.15;;;-3.80;90.10;;;;;;4988023;28;20023;-86
2022/01/08 06:21:39;;;;;;;1.30;1.10;;;-3.70;89.60;;;;;;4997378;28;20034;-88
2022/01/08 06:24:06;;;;;;;3.22;1.40;;;-3.70;89.50;;;;;;4995391;28;20031;-87
2022/01/08 06:26:32;;;;;;;2.63;1.60;;;-3.80;89.50;;;;;;4977372;28;20022;-85
2022/01/08 06:28:59;;;;;;;3.13;1.90;;;-3.80;90.10;;;;;;4977522;28;20105;-86
2022/01/08 06:31:25;;;;;;;2.45;1.33;;;-3.80;90.00;;;;;;4977529;28;20053;-84
2022/01/08 06:33:52;;;;;;;3.50;1.73;;;-3.80;90.10;;;;;;4992588;28;20045;-83
2022/01/08 06:36:19;;;;;;;3.25;1.45;;;-3.80;90.20;;;;;;5004860;28;20102;-85
2022/01/08 06:38:49;;;;;;;2.35;1.90;;;-3.80;90.30;;;;;;5001109;28;20034;-85
2022/01/08 06:41:16;;;;;;;3.22;1.67;;;-3.70;90.50;;;;;;4997617;28;20407;-86
2022/01/08 06:43:42;;;;;;;3.65;1.48;;;-3.70;90.60;;;;;;4997372;28;20023;-84
2022/01/08 06:46:08;;;;;;;3.08;1.50;;;-3.70;90.60;;;;;;4989772;28;20158;-83
2022/01/08 06:48:33;;;;;;;2.33;1.98;;;-3.70;90.50;;;;;;4977636;28;20050;-84
2022/01/08 06:51:01;;;;;;;4.45;2.13;;;-3.70;90.10;;;;;;4991207;28;20050;-83
2022/01/08 06:53:27;;;;;;;1.55;1.42;;;-3.70;89.60;;;;;;4987901;28;20144;-82
2022/01/08 06:55:53;;;;;;;1.30;1.00;;;-3.70;88.90;;;;;;4997971;28;20042;-88
2022/01/08 06:58:20;;;;;;;4.95;1.67;;;-3.60;88.20;;;;;;4981719;28;20023;-87
2022/01/08 07:00:48;;;;;;;0.77;0.68;;;-3.60;87.20;;;;;;4978261;28;20034;-87
2022/01/08 07:03:14;;;;;;;2.45;1.20;;;-3.50;85.80;;;;;;4980801;28;20114;-83
2022/01/08 07:05:40;;;;;;;3.15;1.02;;;-3.50;86.10;;;;;;4992785;28;20031;-84
2022/01/08 07:08:06;;;;;;;1.02;0.82;;;-3.50;85.10;;;;;;4983234;28;20544;-85
2022/01/08 07:10:32;;;;;;;3.13;1.10;;;-3.40;84.40;;;;;;4989283;28;20037;-86
2022/01/08 07:12:59;;;;;;;1.33;1.20;;;-3.50;84.10;;;;;;4994913;28;20019;-85
2022/01/08 07:15:24;;;;;;;2.47;1.38;;;-3.40;84.30;;;;;;4994964;28;20030;-88
2022/01/08 07:17:53;;;;;;;1.23;0.88;;;-3.40;84.20;;;;;;5008007;28;20033;-89
2022/01/08 07:20:19;;;;;;;6.55;1.90;;;-3.30;84.40;;;;;;5005260;28;20472;-88
2022/01/08 07:22:45;;;;;;;2.25;1.13;;;-3.30;84.40;;;;;;5014574;28;20010;-86
2022/01/08 07:25:11;;;;;;;3.40;1.08;;;-3.30;84.20;;;;;;5017962;28;20030;-81
2022/01/08 07:27:38;;;;;;;3.03;1.35;;;-3.30;84.70;;;;;;5017046;28;20011;-86
2022/01/08 07:30:06;;;;;;;5.13;1.70;;;-3.20;84.50;;;;;;5002738;28;20026;-86
2022/01/08 07:32:32;;;;;;;4.15;2.85;;;-3.20;84.30;;;;;;5011354;28;20026;-87
2022/01/08 07:34:58;;;;;;;3.45;1.20;;;-3.20;84.50;;;;;;5007067;28;20069;-87
2022/01/08 07:37:24;;;;;;;2.72;1.63;;;-3.20;84.40;;;;;;4999254;28;20145;-86
2022/01/08 07:39:50;;;;;;;2.03;1.40;;;-3.10;84.50;;;;;;4988220;28;20078;-83
2022/01/08 07:42:16;;;;;;;2.30;1.50;;;-3.10;84.70;;;;;;4994551;28;20050;-86
2022/01/08 07:44:42;;;;;;;1.73;1.13;;;-3.10;84.90;;;;;;4989151;28;20023;-84
2022/01/08 07:47:08;;;;;;;1.30;1.10;;;-3.10;85.00;;;;;;4994389;28;20089;-83
2022/01/08 07:49:34;;;;;;;1.48;1.27;;;-3.20;85.20;;;;;;4994483;28;20026;-84
2022/01/08 07:52:00;;;;;;;4.55;1.42;;;-3.20;85.40;;;;;;4994504;28;20018;-84
2022/01/08 07:54:26;;;;;;;3.13;1.42;;;-3.20;85.50;;;;;;4996427;28;20081;-83
2022/01/08 07:56:52;;;;;;;1.90;1.27;;;-3.10;85.90;;;;;;4995529;28;20026;-86
2022/01/08 07:59:18;;;;;;;3.22;1.35;;;-3.00;86.10;;;;;;5004312;28;20117;-84
2022/01/08 08:01:43;;;;;;;1.75;1.05;;;-3.00;86.20;;;;;;4995174;28;20054;-82
2022/01/08 08:04:09;;;;;;;2.17;1.40;;;-2.90;86.50;;;;;;4997945;28;20015;-87
2022/01/08 08:06:49;;;;;;;3.33;0.98;;;-2.80;86.00;;;;;;5001528;28;20050;-86
2022/01/08 08:09:16;;;;;;;2.13;1.10;;;-2.70;85.10;;;;;;5002466;28;20037;-85
2022/01/08 08:11:42;;;;;;;2.70;1.17;;;-2.60;84.60;;;;;;5014084;28;20030;-83
2022/01/08 08:14:08;;;;;;;2.88;1.50;;;-2.60;83.60;;;;;;5012086;28;20114;-81
2022/01/08 08:16:35;;;;;;;1.67;0.93;;;-2.70;82.50;;;;;;5003734;28;20499;-84
2022/01/08 08:19:00;;;;;;;3.40;0.85;;;-2.70;82.60;;;;;;5002159;28;20026;-82
2022/01/08 08:21:26;;;;;;;4.78;1.20;;;-2.60;82.70;;;;;;5001058;28;20038;-88
2022/01/08 08:23:52;;;;;;;3.22;0.98;;;-2.60;82.20;;;;;;4987229;28;20022;-83
2022/01/08 08:26:18;;;;;;;5.35;1.40;;;-2.30;82.40;;;;;;4991850;28;20054;-84
2022/01/08 08:28:44;;;;;;;1.80;1.27;;;-2.10;82.20;;;;;;5002523;28;20027;-84
2022/01/08 08:31:11;;;;;;;5.47;1.40;;;-1.80;81.90;;;;;;4994584;28;20471;-83
2022/01/08 08:33:38;;;;;;;1.70;1.40;;;-1.50;81.70;;;;;;5002524;28;20018;-83
2022/01/08 08:36:09;;;;;;;3.97;2.65;;;-1.50;79.90;;;;;;5021729;28;20023;-86
2022/01/08 08:38:44;;;;;;;2.33;1.65;;;-1.70;79.80;;;;;;5035814;28;20029;-85
2022/01/08 08:41:15;;;;;;;7.70;2.72;;;-1.90;80.00;;;;;;5003835;28;20039;-85
2022/01/08 08:43:41;;;;;;;5.30;3.00;;;-2.10;79.70;;;;;;5001210;28;20097;-83
2022/01/08 08:46:07;;;;;;;2.75;1.60;;;-2.10;80.60;;;;;;4993921;28;20031;-82
2022/01/08 08:48:34;;;;;;;2.92;1.67;;;-2.00;81.70;;;;;;4997742;28;20368;-84
2022/01/08 08:51:00;;;;;;;3.60;1.50;;;-2.00;80.70;;;;;;4997790;28;20070;-88
2022/01/08 08:53:26;;;;;;;3.83;1.23;;;-2.00;79.50;;;;;;5012212;28;20034;-82
2022/01/08 08:55:52;;;;;;;2.88;1.67;;;-2.10;79.10;;;;;;5000878;28;20034;-83
2022/01/08 08:58:18;;;;;;;5.07;2.17;;;-2.10;79.30;;;;;;4998406;28;20053;-84
2022/01/08 09:00:44;;;;;;;3.92;2.42;;;-2.10;79.60;;;;;;4997661;28;20030;-82
2022/01/08 09:03:10;;;;;;;3.47;2.08;;;-2.10;79.30;;;;;;4999611;28;20019;-88
2022/01/08 09:05:36;;;;;;;3.08;2.15;;;-2.20;79.10;;;;;;4998843;28;20022;-86
2022/01/08 09:08:04;;;;;;;7.38;3.85;;;-2.30;78.90;;;;;;4997291;28;20117;-83
2022/01/08 09:10:29;;;;;;;;;;;-2.30;79.00;;;;;;4996185;28;20515;-86
2022/01/08 09:12:55;;;;;;;9.65;4.53;;;-2.10;80.00;;;;;;4998076;28;19910;-87
2022/01/08 09:15:24;;;;;;;24.30;13.82;;;-1.90;79.40;;;;;;4998059;28;20035;-86
2022/01/08 09:17:51;;;;;;;19.80;8.90;;;-1.90;78.20;;;;;;4997722;28;20026;-87
2022/01/08 09:20:18;;;;;;;;;;;-2.00;78.30;;;;;;5000826;28;20034;-86
2022/01/08 09:22:44;;;;;;;6.22;3.67;;;-2.20;78.80;;;;;;5001420;28;20012;-88
2022/01/08 09:25:12;;;;;;;7.15;4.45;;;-2.40;78.90;;;;;;5002557;28;20046;-86
2022/01/08 09:27:38;;;;;;;3.75;2.78;;;-2.40;79.70;;;;;;5000347;28;20033;-84
2022/01/08 09:30:05;;;;;;;4.00;2.60;;;-2.30;80.20;;;;;;5003535;28;20452;-82
2022/01/08 09:32:33;;;;;;;5.18;1.77;;;-2.30;80.40;;;;;;5010740;28;20030;-82
2022/01/08 09:34:59;;;;;;;4.88;2.95;;;-2.30;80.60;;;;;;5017711;28;20061;-84
2022/01/08 09:37:25;;;;;;;2.90;1.60;;;-2.30;81.00;;;;;;5011698;28;20020;-85
2022/01/08 09:39:51;;;;;;;12.73;5.45;;;-2.30;81.00;;;;;;5011341;28;20030;-83
2022/01/08 09:42:17;;;;;;;3.97;3.08;;;-2.30;80.90;;;;;;5001220;28;20107;-85
2022/01/08 09:44:44;;;;;;;2.53;2.03;;;-2.30;81.00;;;;;;5000864;28;20451;-84
2022/01/08 09:47:12;;;;;;;2.72;1.55;;;-2.40;81.10;;;;;;4999646;28;20484;-87
2022/01/08 09:49:39;;;;;;;5.20;2.90;;;-2.30;81.40;;;;;;4998803;28;20030;-87
2022/01/08 09:52:05;;;;;;;5.63;3.38;;;-2.40;81.60;;;;;;4999499;28;20077;-86
2022/01/08 09:54:31;;;;;;;5.28;3.10;;;-2.40;82.00;;;;;;4997504;28;20033;-84
2022/01/08 09:56:59;;;;;;;4.60;2.40;;;-2.30;82.60;;;;;;5005221;28;20085;-86
2022/01/08 09:59:28;;;;;;;5.53;2.70;;;-2.20;82.50;;;;;;5015156;28;20034;-88
2022/01/08 10:02:00;;;;;;;7.75;3.45;;;-2.20;82.60;;;;;;5004431;28;20023;-86
2022/01/08 10:04:36;;;;;;;5.97;2.92;;;-2.20;82.60;;;;;;4998856;28;20030;-88
2022/01/08 10:07:18;;;;;;;4.82;2.80;;;-2.30;83.00;;;;;;5002834;28;20317;-89
2022/01/08 10:10:21;;;;;;;3.65;2.20;;;-2.30;83.30;;;;;;5006432;28;20393;-88
2022/01/08 10:13:20;;;;;;;3.83;2.53;;;-2.30;83.50;;;;;;5012448;28;20041;-87
2022/01/08 10:18:34;;;;;;;2.30;1.75;;;-2.20;83.30;;;;;;5038771;28;20039;-87
2022/01/08 10:21:14;;;;;;;5.45;2.55;;;-2.20;83.40;;;;;;5039318;28;20037;-84
2022/01/08 10:23:48;;;;;;;4.35;1.92;;;-2.10;83.40;;;;;;5046652;28;20025;-86
2022/01/08 10:26:17;;;;;;;6.97;3.10;;;-2.20;82.90;;;;;;5054385;28;20033;-87
2022/01/08 10:28:56;;;;;;;14.80;9.07;;;-2.30;83.40;;;;;;5052105;28;20030;-88
2022/01/08 10:31:42;;;;;;;9.68;6.45;;;-2.20;83.70;;;;;;5038797;28;20005;-90
2022/01/08 10:34:16;;;;;;;6.03;2.42;;;-2.10;83.40;;;;;;5026162;28;20030;-90
2022/01/08 10:36:56;;;;;;;5.65;2.13;;;-2.20;82.70;;;;;;5040986;28;20033;-87
2022/01/08 10:39:33;;;;;;;4.85;2.47;;;-2.50;83.00;;;;;;5021459;28;20526;-88
2022/01/08 10:42:17;;;;;;;16.05;9.38;;;-2.60;83.60;;;;;;5042113;28;20084;-88
2022/01/08 10:44:49;;;;;;;35.60;18.88;;;-2.60;84.00;;;;;;5050844;28;20018;-89
2022/01/08 10:47:20;;;;;;;8.20;4.10;;;-2.50;84.40;;;;;;5049117;28;20038;-86
2022/01/08 10:50:02;;;;;;;4.25;2.97;;;-2.50;84.40;;;;;;5055278;28;20029;-83
2022/01/08 10:52:39;;;;;;;7.72;2.85;;;-2.50;84.30;;;;;;5017776;28;20043;-87
2022/01/08 10:55:06;;;;;;;6.57;3.38;;;-2.60;84.30;;;;;;4995956;28;20062;-87
2022/01/08 10:57:37;;;;;;;5.22;2.45;;;-2.60;84.10;;;;;;5001578;28;20034;-89
2022/01/08 11:00:11;;;;;;;4.65;2.50;;;-2.50;84.40;;;;;;5001624;28;20022;-90
2022/01/08 11:02:39;;;;;;;5.38;2.67;;;-2.50;83.80;;;;;;5001430;28;20030;-90
2022/01/08 11:05:08;;;;;;;4.03;2.42;;;-2.70;83.70;;;;;;5016545;28;20038;-92
2022/01/08 11:07:41;;;;;;;7.53;3.65;;;-2.80;84.30;;;;;;5004328;28;20050;-89
2022/01/08 11:10:15;;;;;;;3.80;2.88;;;-2.80;84.90;;;;;;5010580;28;20391;-89
2022/01/08 11:12:43;;;;;;;7.13;3.75;;;-2.60;85.40;;;;;;5001401;28;20069;-90
2022/01/08 11:18:09;;;;;;;6.63;3.20;;;-2.30;85.30;;;;;;4983756;28;20031;-90
2022/01/08 11:20:35;;;;;;;6.72;3.75;;;-2.10;84.80;;;;;;4980941;28;20035;-86
2022/01/08 11:23:03;;;;;;;5.13;3.30;;;-2.10;84.60;;;;;;4972337;28;20031;-88
2022/01/08 11:25:34;;;;;;;9.27;3.63;;;-2.00;84.60;;;;;;4976682;28;20035;-88
2022/01/08 11:28:17;;;;;;;4.38;3.28;;;-1.90;84.20;;;;;;4987387;28;20027;-85
2022/01/08 11:30:51;;;;;;;6.90;3.53;;;-1.90;84.10;;;;;;4984216;28;20424;-86
2022/01/08 11:33:28;;;;;;;4.90;3.08;;;-1.90;84.10;;;;;;4975666;28;20087;-83
2022/01/08 11:35:56;;;;;;;5.22;4.38;;;-1.90;83.80;;;;;;4974839;28;20536;-85
2022/01/08 11:38:23;;;;;;;9.85;4.38;;;-1.90;83.90;;;;;;4974549;28;20027;-82
2022/01/08 11:40:52;;;;;;;8.73;3.70;;;-1.90;84.10;;;;;;4980410;28;20090;-83
2022/01/08 11:43:21;;;;;;;5.18;2.80;;;-1.90;84.30;;;;;;4983342;28;20519;-83
2022/01/08 11:46:05;;;;;;;5.63;3.42;;;-1.90;83.90;;;;;;4977420;28;20031;-84
2022/01/08 11:48:43;;;;;;;5.53;3.00;;;-1.90;83.70;;;;;;4959007;28;20042;-88
2022/01/08 11:51:16;;;;;;;4.00;3.22;;;-2.10;83.70;;;;;;4977609;28;20027;-85
2022/01/08 11:53:47;;;;;;;10.55;5.28;;;-2.10;84.20;;;;;;4977519;28;20420;-83
2022/01/08 11:56:30;;;;;;;11.05;5.07;;;-2.20;84.40;;;;;;4993035;28;20527;-86
2022/01/08 11:59:10;;;;;;;3.85;3.17;;;-2.20;84.70;;;;;;4994892;28;20403;-86
2022/01/08 12:01:39;;;;;;;9.23;4.03;;;-2.20;84.70;;;;;;5002376;28;20026;-83
2022/01/08 12:04:06;;;;;;;9.80;5.57;;;-2.20;84.90;;;;;;4996452;28;20082;-84
2022/01/08 12:06:38;;;;;;;9.88;5.20;;;-2.30;85.20;;;;;;5009955;28;20045;-88
2022/01/08 12:09:23;;;;;;;10.73;4.60;;;-2.20;85.40;;;;;;5015212;28;20026;-88
2022/01/08 12:12:02;;;;;;;10.48;5.82;;;-2.30;85.40;;;;;;5026125;28;20022;-85
2022/01/08 12:14:45;;;;;;;9.57;4.80;;;-2.30;85.70;;;;;;5009122;28;20022;-87
2022/01/08 12:17:20;;;;;;;7.05;3.35;;;-2.30;85.80;;;;;;5001610;28;20023;-87
2022/01/08 12:19:58;;;;;;;6.30;3.80;;;-2.30;85.70;;;;;;5000316;28;20026;-87
2022/01/08 12:22:25;;;;;;;4.30;3.70;;;-2.40;86.10;;;;;;4981221;28;20034;-87
2022/01/08 12:25:00;;;;;;;5.57;3.78;;;-2.40;86.40;;;;;;4996795;28;20030;-89
2022/01/08 12:27:33;;;;;;;6.05;4.00;;;-2.40;86.50;;;;;;4998276;28;20034;-89
2022/01/08 12:30:16;;;;;;;6.00;3.75;;;-2.40;86.70;;;;;;4994525;28;20057;-83
2022/01/08 12:32:52;;;;;;;8.52;5.40;;;-2.40;86.60;;;;;;4980613;28;20046;-81
2022/01/08 12:35:19;;;;;;;7.55;5.45;;;-2.50;86.90;;;;;;4991385;28;20045;-83
2022/01/08 12:37:50;;;;;;;11.00;6.38;;;-2.50;87.30;;;;;;4992650;28;20032;-81
2022/01/08 12:40:39;;;;;;;11.70;6.13;;;-2.60;87.60;;;;;;4993048;28;20057;-85
2022/01/08 12:43:23;;;;;;;7.43;5.88;;;-2.50;88.30;;;;;;4991466;28;20061;-83
2022/01/08 12:45:50;;;;;;;10.30;5.40;;;-2.50;88.50;;;;;;4989215;28;20026;-84
2022/01/08 12:48:17;;;;;;;;;;;-2.50;88.60;;;;;;4989801;28;20106;-83
2022/01/08 12:50:43;;;;;;;11.63;7.30;;;-2.50;88.70;;;;;;4999246;28;19913;-83
2022/01/08 12:53:09;;;;;;;11.13;6.30;;;-2.50;88.70;;;;;;4999865;28;20387;-85
2022/01/08 12:55:41;;;;;;;9.38;6.10;;;-2.50;89.40;;;;;;4993644;28;20476;-83
2022/01/08 12:58:24;;;;;;;11.30;8.15;;;-2.40;89.60;;;;;;4994779;28;20073;-85
2022/01/08 13:01:05;;;;;;;11.13;7.68;;;-2.40;89.70;;;;;;4981870;28;20023;-85
2022/01/08 13:03:41;;;;;;;10.60;6.57;;;-2.40;90.00;;;;;;4981315;28;20058;-85
2022/01/08 13:06:13;;;;;;;9.45;6.45;;;-2.40;89.90;;;;;;5006476;28;20057;-84
2022/01/08 13:08:41;;;;;;;11.20;7.75;;;-2.40;89.70;;;;;;4980502;28;20042;-91
2022/01/08 13:11:09;;;;;;;9.88;6.18;;;-2.40;90.00;;;;;;4980707;28;20033;-83
2022/01/08 13:13:46;;;;;;;11.95;7.22;;;-2.50;90.10;;;;;;4982659;28;20026;-85
2022/01/08 13:16:23;;;;;;;15.40;9.50;;;-2.50;90.40;;;;;;4997165;28;20468;-87
2022/01/08 13:18:53;;;;;;;13.00;8.10;;;-2.60;90.60;;;;;;4998927;28;20387;-87
2022/01/08 13:21:19;;;;;;;12.15;7.18;;;-2.60;90.70;;;;;;4998306;28;20060;-86